createdAt,value
2017-04-05T00:00:46.654Z,89.40
2017-04-05T00:01:46.016Z,89.20
2017-04-05T00:02:45.303Z,89.30
2017-04-05T00:03:44.529Z,89.40
2017-04-05T00:04:43.869Z,89.40
2017-04-05T00:05:43.277Z,89.40
2017-04-05T00:06:42.538Z,89.10
2017-04-05T00:08:42.032Z,88.70
2017-04-05T00:09:41.286Z,88.60
2017-04-05T00:10:40.500Z,88.60
2017-04-05T00:11:39.725Z,88.50
2017-04-05T00:12:39.716Z,88.60
2017-04-05T00:13:38.937Z,88.60
2017-04-05T00:14:38.187Z,88.80
2017-04-05T00:15:37.428Z,88.10
2017-04-05T00:16:36.786Z,88.10
2017-04-05T00:17:37.072Z,88.10
2017-04-05T00:18:36.304Z,88.10
2017-04-05T00:19:35.532Z,87.60
2017-04-05T00:20:34.743Z,88.10
2017-04-05T00:21:33.980Z,88.00
2017-04-05T00:22:33.210Z,87.90
2017-04-05T00:23:32.580Z,87.60
2017-04-05T00:24:31.848Z,87.40
2017-04-05T00:25:31.129Z,87.30
2017-04-05T00:26:31.125Z,86.80
2017-04-05T00:27:31.104Z,86.80
2017-04-05T00:28:30.421Z,86.40
2017-04-05T00:29:29.689Z,86.50
2017-04-05T00:30:29.332Z,86.30
2017-04-05T00:31:28.594Z,86.20
2017-04-05T00:32:28.600Z,86.00
2017-04-05T00:33:28.584Z,85.80
2017-04-05T00:34:27.873Z,86.30
2017-04-05T00:35:27.112Z,86.50
2017-04-05T00:36:26.412Z,86.60
2017-04-05T00:37:25.684Z,86.50
2017-04-05T00:38:25.745Z,86.60
2017-04-05T00:39:25.148Z,86.70
2017-04-05T00:40:24.354Z,86.80
2017-04-05T00:41:23.577Z,87.10
2017-04-05T00:42:22.865Z,87.00
2017-04-05T00:43:22.095Z,87.10
2017-04-05T00:44:21.333Z,86.70
2017-04-05T00:45:21.352Z,86.90
2017-04-05T00:46:20.634Z,86.90
2017-04-05T00:47:20.628Z,86.90
2017-04-05T00:48:20.596Z,87.10
2017-04-05T00:49:19.837Z,87.20
2017-04-05T00:50:20.205Z,87.20
2017-04-05T00:51:19.433Z,87.20
2017-04-05T00:52:19.396Z,87.30
2017-04-05T00:53:18.597Z,87.20
2017-04-05T00:54:17.833Z,87.10
2017-04-05T00:55:17.070Z,87.10
2017-04-05T00:56:16.325Z,87.00
2017-04-05T00:57:15.612Z,87.10
2017-04-05T00:58:14.876Z,87.10
2017-04-05T00:59:14.872Z,87.20
2017-04-05T01:00:14.139Z,87.20
2017-04-05T01:01:13.480Z,87.10
2017-04-05T01:02:12.853Z,87.50
2017-04-05T01:03:12.849Z,87.40
2017-04-05T01:04:12.505Z,87.40
2017-04-05T01:05:11.764Z,87.60
2017-04-05T01:06:10.993Z,88.40
2017-04-05T01:07:10.241Z,87.20
2017-04-05T01:08:09.510Z,87.20
2017-04-05T01:09:09.737Z,87.10
2017-04-05T01:10:09.710Z,87.10
2017-04-05T01:11:09.709Z,87.00
2017-04-05T01:12:08.989Z,86.70
2017-04-05T01:13:08.352Z,86.90
2017-04-05T01:14:07.576Z,86.60
2017-04-05T01:15:06.906Z,86.50
2017-04-05T01:16:06.968Z,86.40
2017-04-05T01:17:06.266Z,85.90
2017-04-05T01:18:06.382Z,85.60
2017-04-05T01:19:05.604Z,85.70
2017-04-05T01:20:05.636Z,85.90
2017-04-05T01:21:04.896Z,85.80
2017-04-05T01:22:04.131Z,85.90
2017-04-05T01:23:03.445Z,86.00
2017-04-05T01:24:02.673Z,86.10
2017-04-05T01:25:02.787Z,86.20
2017-04-05T01:26:02.757Z,86.40
2017-04-05T01:27:02.068Z,86.20
2017-04-05T01:28:01.310Z,86.30
2017-04-05T01:29:00.591Z,86.30
2017-04-05T01:29:59.853Z,86.50
2017-04-05T01:30:59.885Z,86.50
2017-04-05T01:31:59.104Z,86.60
2017-04-05T01:32:58.332Z,86.60
2017-04-05T01:33:58.624Z,86.70
2017-04-05T01:34:57.837Z,87.00
2017-04-05T01:35:57.803Z,87.40
2017-04-05T01:36:57.124Z,87.10
2017-04-05T01:37:56.373Z,87.40
2017-04-05T01:38:55.588Z,87.60
2017-04-05T01:39:54.865Z,87.50
2017-04-05T01:40:54.084Z,87.30
2017-04-05T01:41:54.064Z,87.90
2017-04-05T01:42:53.301Z,87.10
2017-04-05T01:43:53.301Z,87.10
2017-04-05T01:44:53.308Z,87.10
2017-04-05T01:45:53.328Z,87.10
2017-04-05T01:46:53.313Z,87.00
2017-04-05T01:47:53.281Z,88.00
2017-04-05T01:48:52.550Z,87.50
2017-04-05T01:49:51.805Z,87.60
2017-04-05T01:50:51.801Z,88.40
2017-04-05T01:51:51.073Z,87.80
2017-04-05T01:52:50.309Z,88.30
2017-04-05T01:53:50.297Z,88.20
2017-04-05T01:54:50.286Z,88.50
2017-04-05T01:55:49.620Z,88.70
2017-04-05T01:56:48.900Z,88.90
2017-04-05T01:57:48.879Z,89.00
2017-04-05T01:58:48.162Z,89.20
2017-04-05T01:59:47.452Z,89.80
2017-04-05T02:00:46.703Z,90.00
2017-04-05T02:01:45.972Z,90.20
2017-04-05T02:02:45.197Z,90.30
2017-04-05T02:03:44.435Z,90.20
2017-04-05T02:04:44.584Z,90.50
2017-04-05T02:05:43.820Z,90.50
2017-04-05T02:06:43.824Z,90.80
2017-04-05T02:07:43.077Z,90.50
2017-04-05T02:08:42.409Z,90.50
2017-04-05T02:09:41.672Z,90.60
2017-04-05T02:10:40.910Z,90.60
2017-04-05T02:11:40.892Z,90.50
2017-04-05T02:12:40.132Z,90.50
2017-04-05T02:13:39.372Z,90.60
2017-04-05T02:14:38.597Z,90.60
2017-04-05T02:15:37.816Z,90.60
2017-04-05T02:16:37.035Z,90.60
2017-04-05T02:17:36.295Z,90.40
2017-04-05T02:18:35.567Z,90.40
2017-04-05T02:19:34.849Z,90.40
2017-04-05T02:20:34.121Z,90.30
2017-04-05T02:21:34.088Z,90.20
2017-04-05T02:22:33.316Z,90.30
2017-04-05T02:23:32.540Z,90.30
2017-04-05T02:24:31.817Z,90.20
2017-04-05T02:25:31.065Z,90.20
2017-04-05T02:26:30.293Z,90.20
2017-04-05T02:27:29.520Z,90.10
2017-04-05T02:28:28.776Z,90.10
2017-04-05T02:29:28.056Z,90.00
2017-04-05T02:30:27.532Z,90.00
2017-04-05T02:31:27.500Z,90.00
2017-04-05T02:32:26.736Z,90.10
2017-04-05T02:33:26.776Z,90.10
2017-04-05T02:34:26.019Z,90.10
2017-04-05T02:35:26.003Z,90.10
2017-04-05T02:36:25.292Z,90.00
2017-04-05T02:37:24.585Z,90.00
2017-04-05T02:38:23.824Z,90.00
2017-04-05T02:39:23.048Z,89.90
2017-04-05T02:40:22.269Z,89.70
2017-04-05T02:41:21.490Z,89.60
2017-04-05T02:42:20.753Z,89.50
2017-04-05T02:43:20.719Z,89.00
2017-04-05T02:44:19.953Z,89.10
2017-04-05T02:45:20.007Z,89.10
2017-04-05T02:46:19.321Z,89.00
2017-04-05T02:47:18.771Z,89.00
2017-04-05T02:48:17.995Z,89.00
2017-04-05T02:49:17.232Z,89.00
2017-04-05T02:50:17.216Z,88.90
2017-04-05T02:51:16.464Z,88.80
2017-04-05T02:52:15.719Z,89.00
2017-04-05T02:53:15.700Z,89.00
2017-04-05T02:54:15.158Z,89.20
2017-04-05T02:55:14.425Z,88.80
2017-04-05T02:56:13.641Z,88.70
2017-04-05T02:57:12.930Z,88.60
2017-04-05T02:58:12.452Z,88.50
2017-04-05T02:59:11.698Z,88.40
2017-04-05T03:00:10.956Z,88.40
2017-04-05T03:01:10.245Z,88.20
2017-04-05T03:02:10.224Z,88.30
2017-04-05T03:03:09.468Z,88.30
2017-04-05T03:04:08.727Z,89.00
2017-04-05T03:05:07.981Z,88.20
2017-04-05T03:06:07.297Z,88.30
2017-04-05T03:07:06.527Z,88.30
2017-04-05T03:08:05.767Z,88.50
2017-04-05T03:09:05.236Z,88.50
2017-04-05T03:10:04.594Z,88.40
2017-04-05T03:11:04.577Z,88.40
2017-04-05T03:12:03.832Z,88.60
2017-04-05T03:13:03.069Z,88.70
2017-04-05T03:14:02.404Z,88.80
2017-04-05T03:15:01.685Z,88.80
2017-04-05T03:16:00.934Z,89.00
2017-04-05T03:17:00.922Z,89.20
2017-04-05T03:18:00.248Z,89.30
2017-04-05T03:19:00.245Z,89.10
2017-04-05T03:20:00.269Z,89.20
2017-04-05T03:21:00.260Z,89.30
2017-04-05T03:22:00.340Z,89.60
2017-04-05T03:22:59.609Z,89.70
2017-04-05T03:23:58.845Z,89.80
2017-04-05T03:24:58.822Z,89.80
2017-04-05T03:25:58.093Z,89.80
2017-04-05T03:26:57.325Z,90.00
2017-04-05T03:27:56.591Z,90.00
2017-04-05T03:28:55.916Z,90.00
2017-04-05T03:29:55.191Z,89.70
2017-04-05T03:30:54.469Z,89.80
2017-04-05T03:31:54.001Z,89.40
2017-04-05T03:32:53.982Z,89.50
2017-04-05T03:33:53.245Z,89.60
2017-04-05T03:34:52.483Z,89.70
2017-04-05T03:35:52.460Z,89.70
2017-04-05T03:36:51.764Z,89.80
2017-04-05T03:37:51.043Z,89.90
2017-04-05T03:38:50.257Z,90.00
2017-04-05T03:39:50.248Z,90.10
2017-04-05T03:40:49.451Z,90.10
2017-04-05T03:41:49.430Z,90.50
2017-04-05T03:42:48.668Z,90.10
2017-04-05T03:43:47.956Z,90.20
2017-04-05T03:44:47.261Z,90.10
2017-04-05T03:45:46.512Z,90.00
2017-04-05T03:46:46.561Z,90.00
2017-04-05T03:47:45.867Z,89.80
2017-04-05T03:48:45.140Z,89.90
2017-04-05T03:49:44.681Z,89.80
2017-04-05T03:50:43.970Z,89.90
2017-04-05T03:51:43.213Z,90.00
2017-04-05T03:52:42.469Z,89.80
2017-04-05T03:53:42.441Z,89.60
2017-04-05T03:54:41.676Z,89.40
2017-04-05T03:55:41.689Z,88.90
2017-04-05T03:56:41.661Z,88.40
2017-04-05T03:57:40.884Z,88.50
2017-04-05T03:58:40.841Z,88.50
2017-04-05T03:59:40.078Z,88.60
2017-04-05T04:00:40.044Z,88.80
2017-04-05T04:01:39.295Z,88.70
2017-04-05T04:02:38.523Z,88.70
2017-04-05T04:03:37.868Z,88.40
2017-04-05T04:04:37.100Z,88.20
2017-04-05T04:05:37.372Z,88.40
2017-04-05T04:06:36.629Z,88.30
2017-04-05T04:07:36.926Z,88.80
2017-04-05T04:08:36.280Z,88.40
2017-04-05T04:09:35.525Z,88.40
2017-04-05T04:10:35.513Z,88.40
2017-04-05T04:11:34.750Z,88.40
2017-04-05T04:12:33.990Z,88.50
2017-04-05T04:13:33.501Z,88.50
2017-04-05T04:14:32.782Z,88.50
2017-04-05T04:15:32.057Z,88.30
2017-04-05T04:16:31.294Z,88.40
2017-04-05T04:17:30.525Z,88.90
2017-04-05T04:18:29.851Z,88.40
2017-04-05T04:19:29.172Z,88.50
2017-04-05T04:20:28.472Z,89.20
2017-04-05T04:21:27.702Z,88.80
2017-04-05T04:22:27.117Z,88.50
2017-04-05T04:23:26.360Z,88.50
2017-04-05T04:24:25.637Z,88.70
2017-04-05T04:25:24.888Z,88.70
2017-04-05T04:26:24.120Z,88.70
2017-04-05T04:27:23.387Z,88.60
2017-04-05T04:28:23.351Z,88.00
2017-04-05T04:29:22.604Z,88.00
2017-04-05T04:30:21.828Z,88.20
2017-04-05T04:31:21.116Z,88.20
2017-04-05T04:32:20.415Z,88.30
2017-04-05T04:33:19.665Z,88.40
2017-04-05T04:34:18.906Z,88.50
2017-04-05T04:35:18.180Z,88.70
2017-04-05T04:36:17.416Z,88.80
2017-04-05T04:37:17.452Z,89.10
2017-04-05T04:38:16.697Z,89.00
2017-04-05T04:39:16.721Z,89.00
2017-04-05T04:40:16.758Z,89.00
2017-04-05T04:41:15.991Z,89.10
2017-04-05T04:42:15.209Z,89.20
2017-04-05T04:43:15.248Z,89.20
2017-04-05T04:44:14.512Z,89.30
2017-04-05T04:45:13.797Z,90.00
2017-04-05T04:46:13.793Z,89.30
2017-04-05T04:47:13.304Z,89.20
2017-04-05T04:48:12.583Z,89.40
2017-04-05T04:49:12.589Z,89.30
2017-04-05T04:50:12.577Z,89.30
2017-04-05T04:51:11.855Z,89.30
2017-04-05T04:52:11.138Z,89.40
2017-04-05T04:53:10.368Z,89.30
2017-04-05T04:54:10.332Z,89.30
2017-04-05T04:55:09.604Z,89.40
2017-04-05T04:56:08.896Z,89.30
2017-04-05T04:57:08.145Z,89.10
2017-04-05T04:58:08.108Z,88.80
2017-04-05T04:59:07.325Z,88.50
2017-04-05T05:00:06.564Z,88.40
2017-04-05T05:01:05.842Z,88.00
2017-04-05T05:02:05.112Z,87.90
2017-04-05T05:03:05.085Z,87.60
2017-04-05T05:04:04.322Z,87.50
2017-04-05T05:05:03.617Z,88.00
2017-04-05T05:06:02.855Z,87.10
2017-04-05T05:07:02.113Z,87.10
2017-04-05T05:08:01.312Z,87.10
2017-04-05T05:09:00.542Z,87.00
2017-04-05T05:09:59.756Z,86.60
2017-04-05T05:10:58.976Z,86.00
2017-04-05T05:11:58.221Z,85.60
2017-04-05T05:12:58.246Z,84.70
2017-04-05T05:13:57.484Z,84.60
2017-04-05T05:14:56.700Z,84.40
2017-04-05T05:15:56.685Z,84.50
2017-04-05T05:16:55.921Z,84.20
2017-04-05T05:17:55.160Z,84.20
2017-04-05T05:18:54.433Z,83.90
2017-04-05T05:19:53.653Z,83.90
2017-04-05T05:20:52.868Z,84.00
2017-04-05T05:21:52.844Z,83.00
2017-04-05T05:22:52.082Z,83.00
2017-04-05T05:23:51.317Z,83.10
2017-04-05T05:24:50.809Z,83.10
2017-04-05T05:25:50.052Z,83.20
2017-04-05T05:26:49.277Z,82.80
2017-04-05T05:27:48.508Z,82.50
2017-04-05T05:28:48.511Z,81.50
2017-04-05T05:29:48.482Z,80.50
2017-04-05T05:30:47.737Z,80.40
2017-04-05T05:31:46.974Z,79.80
2017-04-05T05:32:46.208Z,79.30
2017-04-05T05:33:45.445Z,79.30
2017-04-05T05:34:44.721Z,79.10
2017-04-05T05:35:43.994Z,78.70
2017-04-05T05:36:43.521Z,77.60
2017-04-05T05:37:42.831Z,77.60
2017-04-05T05:38:42.817Z,77.40
2017-04-05T05:39:42.085Z,76.10
2017-04-05T05:40:41.294Z,75.20
2017-04-05T05:41:40.549Z,75.20
2017-04-05T05:42:39.815Z,75.20
2017-04-05T05:43:39.077Z,75.20
2017-04-05T05:44:38.340Z,75.60
2017-04-05T05:45:37.586Z,75.80
2017-04-05T05:46:37.561Z,75.20
2017-04-05T05:47:36.804Z,75.20
2017-04-05T05:48:36.056Z,75.20
2017-04-05T05:49:36.041Z,76.00
2017-04-05T05:50:35.277Z,75.90
2017-04-05T05:51:34.504Z,75.80
2017-04-05T05:52:33.745Z,76.10
2017-04-05T05:53:33.716Z,75.70
2017-04-05T05:54:33.005Z,76.60
2017-04-05T05:55:32.319Z,75.50
2017-04-05T05:56:32.291Z,76.10
2017-04-05T05:57:31.525Z,76.70
2017-04-05T05:58:31.530Z,76.60
2017-04-05T05:59:31.517Z,76.80
2017-04-05T06:00:30.901Z,77.60
2017-04-05T06:01:30.156Z,77.40
2017-04-05T06:02:29.395Z,78.10
2017-04-05T06:03:28.613Z,78.30
2017-04-05T06:04:27.856Z,78.80
2017-04-05T06:05:27.094Z,77.90
2017-04-05T06:06:26.591Z,78.20
2017-04-05T06:07:25.825Z,78.70
2017-04-05T06:08:25.053Z,78.40
2017-04-05T06:09:25.061Z,78.20
2017-04-05T06:10:25.096Z,78.80
2017-04-05T06:11:24.376Z,78.40
2017-04-05T06:12:23.664Z,78.30
2017-04-05T06:13:22.925Z,78.10
2017-04-05T06:14:22.213Z,78.00
2017-04-05T06:15:21.458Z,78.00
2017-04-05T06:16:20.681Z,77.60
2017-04-05T06:17:19.920Z,77.40
2017-04-05T06:18:22.097Z,77.20
2017-04-05T06:19:21.325Z,77.00
2017-04-05T06:20:20.576Z,76.60
2017-04-05T06:21:19.822Z,76.40
2017-04-05T06:22:19.092Z,76.80
2017-04-05T06:23:18.335Z,76.40
2017-04-05T06:24:17.641Z,76.20
2017-04-05T06:25:16.889Z,75.90
2017-04-05T06:26:16.885Z,75.60
2017-04-05T06:27:16.892Z,76.00
2017-04-05T06:28:16.861Z,75.40
2017-04-05T06:29:16.168Z,75.30
2017-04-05T06:30:15.762Z,75.30
2017-04-05T06:31:15.104Z,75.30
2017-04-05T06:32:14.365Z,75.20
2017-04-05T06:33:14.337Z,75.30
2017-04-05T06:34:14.328Z,75.30
2017-04-05T06:35:13.571Z,74.70
2017-04-05T06:36:13.561Z,75.00
2017-04-05T06:37:12.802Z,74.90
2017-04-05T06:38:12.049Z,74.30
2017-04-05T06:39:11.265Z,74.20
2017-04-05T06:40:10.561Z,75.30
2017-04-05T06:41:09.785Z,73.80
2017-04-05T06:42:09.040Z,74.00
2017-04-05T06:43:08.277Z,73.10
2017-04-05T06:44:07.492Z,73.50
2017-04-05T06:45:07.508Z,73.10
2017-04-05T06:46:07.478Z,72.80
2017-04-05T06:47:06.729Z,72.30
2017-04-05T06:48:06.012Z,72.40
2017-04-05T06:49:05.230Z,71.50
2017-04-05T06:50:04.521Z,71.90
2017-04-05T06:51:03.752Z,71.20
2017-04-05T06:52:03.735Z,70.30
2017-04-05T06:53:02.970Z,69.80
2017-04-05T06:54:03.211Z,70.00
2017-04-05T06:55:02.421Z,69.60
2017-04-05T06:56:01.647Z,69.50
2017-04-05T06:57:01.617Z,69.10
2017-04-05T06:58:00.849Z,68.10
2017-04-05T06:59:00.813Z,67.40
2017-04-05T07:00:00.317Z,67.10
2017-04-05T07:00:59.528Z,66.70
2017-04-05T07:01:59.514Z,66.00
2017-04-05T07:03:07.501Z,65.40
2017-04-05T07:04:08.305Z,63.50
2017-04-05T07:05:08.754Z,62.80
2017-04-05T07:06:08.453Z,62.00
2017-04-05T07:07:08.141Z,62.10
2017-04-05T07:08:07.373Z,61.30
2017-04-05T07:09:07.756Z,59.90
2017-04-05T07:10:06.993Z,59.30
2017-04-05T07:11:06.521Z,58.70
2017-04-05T07:12:05.815Z,58.40
2017-04-05T07:13:05.116Z,58.10
2017-04-05T07:14:05.439Z,58.00
2017-04-05T07:15:04.911Z,57.90
2017-04-05T07:16:04.286Z,57.20
2017-04-05T07:17:03.717Z,57.70
2017-04-05T07:18:03.055Z,57.40
2017-04-05T07:19:02.384Z,58.00
2017-04-05T07:20:02.863Z,57.80
2017-04-05T07:21:02.093Z,58.10
2017-04-05T07:22:01.333Z,58.00
2017-04-05T07:23:01.674Z,58.20
2017-04-05T07:24:00.937Z,59.00
2017-04-05T07:25:00.929Z,58.90
2017-04-05T07:26:00.201Z,58.90
2017-04-05T07:26:59.462Z,58.90
2017-04-05T07:27:58.734Z,58.90
2017-04-05T07:28:58.107Z,59.10
2017-04-05T07:29:58.073Z,58.80
2017-04-05T07:30:57.292Z,58.00
2017-04-05T07:31:56.533Z,57.20
2017-04-05T07:32:55.763Z,57.10
2017-04-05T07:33:54.989Z,56.20
2017-04-05T07:34:54.272Z,55.50
2017-04-05T07:35:53.475Z,56.00
2017-04-05T07:36:52.717Z,56.20
2017-04-05T07:37:51.972Z,55.90
2017-04-05T07:38:51.258Z,56.30
2017-04-05T07:39:50.490Z,57.30
2017-04-05T07:40:49.767Z,57.70
2017-04-05T07:41:48.988Z,59.10
2017-04-05T07:42:48.938Z,59.10
2017-04-05T07:43:48.909Z,59.20
2017-04-05T07:44:48.865Z,59.30
2017-04-05T07:45:48.097Z,57.60
2017-04-05T07:46:47.668Z,58.20
2017-04-05T07:47:46.913Z,57.20
2017-04-05T07:48:46.144Z,57.50
2017-04-05T07:49:45.404Z,58.00
2017-04-05T07:50:44.676Z,58.60
2017-04-05T07:51:43.886Z,58.20
2017-04-05T07:52:43.154Z,58.10
2017-04-05T07:53:42.479Z,58.00
2017-04-05T07:54:41.690Z,58.80
2017-04-05T07:55:40.922Z,58.70
2017-04-05T07:56:40.145Z,59.10
2017-04-05T07:57:39.365Z,58.70
2017-04-05T07:58:39.665Z,58.80
2017-04-05T07:59:38.897Z,59.60
2017-04-05T08:00:38.153Z,59.60
2017-04-05T08:01:37.361Z,59.50
2017-04-05T08:02:37.360Z,59.20
2017-04-05T08:03:37.334Z,59.10
2017-04-05T08:04:36.592Z,57.70
2017-04-05T08:05:35.837Z,56.80
2017-04-05T08:06:35.817Z,57.30
2017-04-05T08:07:35.045Z,57.70
2017-04-05T08:08:35.229Z,58.00
2017-04-05T08:09:34.484Z,57.90
2017-04-05T08:10:34.013Z,57.30
2017-04-05T08:11:33.233Z,57.70
2017-04-05T08:12:33.250Z,57.90
2017-04-05T08:13:33.247Z,57.10
2017-04-05T08:14:33.221Z,57.10
2017-04-05T08:15:32.460Z,55.80
2017-04-05T08:16:31.716Z,56.20
2017-04-05T08:17:30.933Z,55.20
2017-04-05T08:18:30.924Z,54.50
2017-04-05T08:19:30.906Z,54.60
2017-04-05T08:20:30.187Z,54.40
2017-04-05T08:21:29.536Z,54.80
2017-04-05T08:22:29.019Z,53.90
2017-04-05T08:23:28.976Z,54.40
2017-04-05T08:24:28.755Z,54.40
2017-04-05T08:25:27.977Z,53.30
2017-04-05T08:26:27.205Z,53.30
2017-04-05T08:27:27.205Z,53.00
2017-04-05T08:28:27.205Z,54.10
2017-04-05T08:29:27.196Z,53.30
2017-04-05T08:30:26.457Z,51.90
2017-04-05T08:31:25.708Z,52.60
2017-04-05T08:32:25.972Z,51.80
2017-04-05T08:33:25.256Z,51.90
2017-04-05T08:34:24.779Z,51.30
2017-04-05T08:35:24.041Z,52.10
2017-04-05T08:36:23.351Z,50.50
2017-04-05T08:37:22.843Z,50.10
2017-04-05T08:38:22.119Z,49.60
2017-04-05T08:39:21.373Z,49.80
2017-04-05T08:40:20.665Z,49.00
2017-04-05T08:41:19.941Z,48.50
2017-04-05T08:42:19.925Z,47.50
2017-04-05T08:43:19.161Z,46.40
2017-04-05T08:44:18.397Z,47.10
2017-04-05T08:45:17.713Z,47.20
2017-04-05T08:46:17.925Z,47.20
2017-04-05T08:47:17.949Z,47.70
2017-04-05T08:48:17.930Z,48.20
2017-04-05T08:49:18.033Z,48.40
2017-04-05T08:50:17.281Z,48.10
2017-04-05T08:51:16.527Z,47.20
2017-04-05T08:52:16.614Z,47.10
2017-04-05T08:53:15.908Z,47.20
2017-04-05T08:54:15.178Z,45.40
2017-04-05T08:55:14.448Z,44.90
2017-04-05T08:56:13.753Z,44.70
2017-04-05T08:57:13.774Z,44.50
2017-04-05T08:58:13.048Z,44.40
2017-04-05T08:59:12.294Z,45.20
2017-04-05T09:00:12.333Z,45.00
2017-04-05T09:01:11.551Z,44.60
2017-04-05T09:02:10.933Z,45.90
2017-04-05T09:03:10.165Z,46.80
2017-04-05T09:04:10.454Z,47.10
2017-04-05T09:05:09.729Z,45.90
2017-04-05T09:06:08.975Z,45.70
2017-04-05T09:07:08.221Z,47.50
2017-04-05T09:08:07.494Z,46.50
2017-04-05T09:09:06.761Z,46.20
2017-04-05T09:10:06.053Z,45.90
2017-04-05T09:11:05.309Z,45.70
2017-04-05T09:12:05.315Z,46.30
2017-04-05T09:13:05.311Z,45.60
2017-04-05T09:14:04.561Z,46.50
2017-04-05T09:15:03.797Z,45.90
2017-04-05T09:16:03.813Z,44.80
2017-04-05T09:17:03.829Z,44.90
2017-04-05T09:18:03.797Z,44.50
2017-04-05T09:19:03.050Z,44.60
2017-04-05T09:20:02.273Z,44.30
2017-04-05T09:21:01.533Z,44.40
2017-04-05T09:22:00.858Z,45.60
2017-04-05T09:23:00.097Z,47.10
2017-04-05T09:23:59.331Z,46.30
2017-04-05T09:24:58.573Z,46.10
2017-04-05T09:25:57.837Z,46.50
2017-04-05T09:26:57.058Z,46.40
2017-04-05T09:27:56.557Z,44.50
2017-04-05T09:28:55.814Z,43.50
2017-04-05T09:29:55.764Z,43.70
2017-04-05T09:30:55.001Z,43.60
2017-04-05T09:31:54.240Z,45.00
2017-04-05T09:32:53.460Z,42.80
2017-04-05T09:33:52.757Z,42.00
2017-04-05T09:34:52.005Z,44.50
2017-04-05T09:35:51.577Z,44.00
2017-04-05T09:36:51.554Z,42.50
2017-04-05T09:37:50.829Z,41.90
2017-04-05T09:38:50.850Z,40.80
2017-04-05T09:39:50.128Z,41.20
2017-04-05T09:40:49.378Z,40.90
2017-04-05T09:41:48.625Z,40.90
2017-04-05T09:42:47.857Z,39.40
2017-04-05T09:43:47.092Z,39.20
2017-04-05T09:44:46.351Z,39.50
2017-04-05T09:45:45.984Z,40.10
2017-04-05T09:46:45.201Z,39.50
2017-04-05T09:47:45.148Z,39.80
2017-04-05T09:48:44.404Z,39.70
2017-04-05T09:49:43.668Z,40.30
2017-04-05T09:50:42.888Z,40.50
2017-04-05T09:51:42.224Z,40.30
2017-04-05T09:52:41.445Z,41.20
2017-04-05T09:53:41.416Z,39.30
2017-04-05T09:54:40.643Z,39.20
2017-04-05T09:55:40.609Z,39.30
2017-04-05T09:56:39.826Z,38.30
2017-04-05T09:57:39.292Z,38.70
2017-04-05T09:58:38.773Z,38.50
2017-04-05T09:59:38.578Z,37.90
2017-04-05T10:00:37.884Z,37.80
2017-04-05T10:01:37.139Z,37.10
2017-04-05T10:02:37.000Z,36.80
2017-04-05T10:03:36.268Z,37.00
2017-04-05T10:04:35.502Z,36.70
2017-04-05T10:05:35.461Z,36.60
2017-04-05T10:06:34.677Z,37.20
2017-04-05T10:07:33.948Z,36.90
2017-04-05T10:08:33.431Z,37.70
2017-04-05T10:09:32.712Z,38.10
2017-04-05T10:10:31.978Z,38.00
2017-04-05T10:11:31.979Z,38.90
2017-04-05T10:12:31.980Z,38.70
2017-04-05T10:13:31.947Z,38.30
2017-04-05T10:14:31.193Z,38.10
2017-04-05T10:15:30.456Z,37.20
2017-04-05T10:16:29.681Z,36.30
2017-04-05T10:17:28.988Z,35.00
2017-04-05T10:18:28.244Z,35.80
2017-04-05T10:19:28.284Z,34.20
2017-04-05T10:20:27.598Z,34.90
2017-04-05T10:21:26.829Z,33.60
2017-04-05T10:22:26.144Z,33.60
2017-04-05T10:23:25.385Z,32.60
2017-04-05T10:24:24.615Z,33.00
2017-04-05T10:25:24.089Z,32.40
2017-04-05T10:26:24.048Z,33.00
2017-04-05T10:27:23.331Z,32.00
2017-04-05T10:28:22.551Z,31.90
2017-04-05T10:29:22.529Z,32.50
2017-04-05T10:30:21.819Z,31.80
2017-04-05T10:31:21.080Z,31.70
2017-04-05T10:32:20.305Z,32.70
2017-04-05T10:33:19.647Z,31.60
2017-04-05T10:34:18.997Z,31.30
2017-04-05T10:35:18.253Z,31.50
2017-04-05T10:36:17.514Z,31.50
2017-04-05T10:37:17.621Z,31.10
2017-04-05T10:38:17.597Z,31.80
2017-04-05T10:39:16.869Z,31.10
2017-04-05T10:40:16.149Z,33.10
2017-04-05T10:41:15.401Z,33.00
2017-04-05T10:42:15.417Z,32.60
2017-04-05T10:43:14.698Z,33.30
2017-04-05T10:44:14.657Z,32.20
2017-04-05T10:45:13.924Z,32.50
2017-04-05T10:46:13.189Z,31.70
2017-04-05T10:47:13.164Z,31.70
2017-04-05T10:48:12.385Z,31.50
2017-04-05T10:49:12.363Z,31.00
2017-04-05T10:50:11.629Z,31.60
2017-04-05T10:51:10.877Z,32.20
2017-04-05T10:52:10.890Z,31.60
2017-04-05T10:53:10.141Z,31.80
2017-04-05T10:54:09.373Z,32.10
2017-04-05T10:55:08.611Z,32.40
2017-04-05T10:56:07.820Z,32.10
2017-04-05T10:57:07.091Z,30.90
2017-04-05T10:58:06.583Z,31.50
2017-04-05T10:59:05.797Z,31.50
2017-04-05T11:00:05.783Z,31.80
2017-04-05T11:01:05.058Z,31.60
2017-04-05T11:02:04.309Z,31.90
2017-04-05T11:03:02.780Z,32.00
2017-04-05T11:04:02.042Z,31.10
2017-04-05T11:05:02.129Z,32.10
2017-04-05T11:06:01.364Z,30.90
2017-04-05T11:07:00.657Z,30.50
2017-04-05T11:08:00.637Z,30.60
2017-04-05T11:08:59.899Z,29.60
2017-04-05T11:09:59.148Z,29.50
2017-04-05T11:10:58.377Z,30.00
2017-04-05T11:11:57.633Z,29.70
2017-04-05T11:12:56.845Z,29.30
2017-04-05T11:13:56.055Z,28.80
2017-04-05T11:14:55.284Z,28.80
2017-04-05T11:15:55.251Z,28.70
2017-04-05T11:16:54.464Z,30.00
2017-04-05T11:17:54.424Z,29.00
2017-04-05T11:18:53.645Z,29.20
2017-04-05T11:19:52.905Z,29.30
2017-04-05T11:20:52.169Z,29.10
2017-04-05T11:21:51.410Z,29.50
2017-04-05T11:22:50.633Z,28.80
2017-04-05T11:23:50.576Z,29.50
2017-04-05T11:24:49.796Z,29.30
2017-04-05T11:25:49.057Z,28.50
2017-04-05T11:26:48.289Z,28.70
2017-04-05T11:28:46.996Z,29.50
2017-04-05T11:29:46.972Z,29.90
2017-04-05T11:31:45.804Z,29.90
2017-04-05T11:32:45.101Z,29.60
2017-04-05T11:33:44.333Z,29.10
2017-04-05T11:34:43.569Z,29.30
2017-04-05T11:35:42.869Z,29.70
2017-04-05T11:36:42.110Z,29.50
2017-04-05T11:37:41.318Z,30.00
2017-04-05T11:38:40.549Z,30.30
2017-04-05T11:39:39.775Z,30.70
2017-04-05T11:40:39.026Z,30.60
2017-04-05T11:41:38.545Z,29.10
2017-04-05T11:42:37.784Z,29.20
2017-04-05T11:43:37.773Z,29.20
2017-04-05T11:44:37.745Z,29.10
2017-04-05T11:45:36.953Z,29.40
2017-04-05T11:46:36.172Z,29.70
2017-04-05T11:47:36.289Z,30.50
2017-04-05T11:48:35.571Z,30.10
2017-04-05T11:49:34.821Z,30.60
2017-04-05T11:50:34.073Z,30.80
2017-04-05T11:51:33.300Z,30.10
2017-04-05T11:52:32.714Z,30.60
2017-04-05T11:53:32.688Z,30.60
2017-04-05T11:54:32.143Z,29.90
2017-04-05T11:55:31.548Z,29.70
2017-04-05T11:56:31.009Z,29.30
2017-04-05T11:57:31.207Z,27.80
2017-04-05T11:58:31.468Z,27.90
2017-04-05T11:59:30.796Z,28.70
2017-04-05T12:00:30.229Z,26.70
2017-04-05T12:01:30.404Z,27.50
2017-04-05T12:02:29.787Z,27.10
2017-04-05T12:03:29.391Z,27.10
2017-04-05T12:04:28.605Z,27.50
2017-04-05T12:05:28.562Z,28.50
2017-04-05T12:06:27.785Z,29.20
2017-04-05T12:07:27.241Z,29.50
2017-04-05T12:08:26.617Z,29.80
2017-04-05T12:09:26.108Z,30.50
2017-04-05T12:10:25.645Z,31.20
2017-04-05T12:11:25.284Z,29.20
2017-04-05T12:12:25.243Z,29.80
2017-04-05T12:13:25.045Z,29.60
2017-04-05T12:14:24.304Z,28.60
2017-04-05T12:15:23.543Z,27.80
2017-04-05T12:16:23.042Z,27.80
2017-04-05T12:17:22.257Z,28.20
2017-04-05T12:18:22.220Z,28.40
2017-04-05T12:19:21.451Z,28.30
2017-04-05T12:20:21.736Z,28.80
2017-04-05T12:21:20.976Z,29.10
2017-04-05T12:22:20.208Z,29.40
2017-04-05T12:23:19.433Z,29.40
2017-04-05T12:24:19.397Z,30.50
2017-04-05T12:25:18.680Z,31.10
2017-04-05T12:26:17.966Z,31.40
2017-04-05T12:27:17.232Z,31.40
2017-04-05T12:28:16.484Z,32.40
2017-04-05T12:29:15.728Z,31.80
2017-04-05T12:30:14.973Z,31.80
2017-04-05T12:31:15.018Z,31.20
2017-04-05T12:32:14.556Z,31.50
2017-04-05T12:33:13.785Z,31.60
2017-04-05T12:34:13.765Z,32.50
2017-04-05T12:35:12.993Z,31.90
2017-04-05T12:36:12.224Z,32.10
2017-04-05T12:37:11.473Z,31.50
2017-04-05T12:38:11.017Z,32.10
2017-04-05T12:39:10.255Z,32.00
2017-04-05T12:40:09.457Z,32.50
2017-04-05T12:41:08.696Z,31.60
2017-04-05T12:42:07.961Z,32.10
2017-04-05T12:45:04.817Z,33.00
2017-04-05T12:46:04.061Z,33.00
2017-04-05T12:47:03.326Z,32.60
2017-04-05T12:48:03.306Z,32.10
2017-04-05T12:49:02.544Z,33.40
2017-04-05T12:50:01.797Z,32.50
2017-04-05T12:51:01.035Z,33.40